createdAt,value
2018-04-01T00:00:28.180Z,49.00
2018-04-01T00:02:55.027Z,49.57
2018-04-01T00:05:21.875Z,48.17
2018-04-01T00:07:48.733Z,49.17
2018-04-01T00:10:15.584Z,48.13
2018-04-01T00:12:42.459Z,49.60
2018-04-01T00:15:09.309Z,47.97
2018-04-01T00:17:36.163Z,40.63
2018-04-01T00:20:03.015Z,44.93
2018-04-01T00:22:29.874Z,41.40
2018-04-01T00:24:56.718Z,50.03
2018-04-01T00:27:23.606Z,39.20
2018-04-01T00:29:50.566Z,39.90
2018-04-01T00:32:17.423Z,37.07
2018-04-01T00:34:44.284Z,38.67
2018-04-01T00:37:11.142Z,31.43
2018-04-01T00:39:37.987Z,28.63
2018-04-01T00:42:04.863Z,28.87
2018-04-01T00:44:31.714Z,28.07
2018-04-01T00:46:58.630Z,28.20
2018-04-01T00:49:25.502Z,30.50
2018-04-01T00:51:52.335Z,31.20
2018-04-01T00:54:19.191Z,30.33
2018-04-01T00:56:46.043Z,34.83
2018-04-01T00:59:12.915Z,36.37
2018-04-01T01:01:39.771Z,30.63
2018-04-01T01:04:06.626Z,26.87
2018-04-01T01:06:33.479Z,31.30
2018-04-01T01:09:00.331Z,29.30
2018-04-01T01:11:27.186Z,33.70
2018-04-01T01:13:54.038Z,38.40
2018-04-01T01:16:20.895Z,34.73
2018-04-01T01:18:47.858Z,32.83
2018-04-01T01:21:14.702Z,31.77
2018-04-01T01:23:41.568Z,29.87
2018-04-01T01:26:08.487Z,34.70
2018-04-01T01:28:35.440Z,40.83
2018-04-01T01:31:02.285Z,35.45
2018-04-01T01:33:29.218Z,30.57
2018-04-01T01:35:56.071Z,35.40
2018-04-01T01:38:22.943Z,37.73
2018-04-01T01:40:49.823Z,31.87
2018-04-01T01:43:16.680Z,33.30
2018-04-01T01:45:43.534Z,35.60
2018-04-01T01:48:10.401Z,32.67
2018-04-01T01:50:37.238Z,36.53
2018-04-01T01:53:04.107Z,33.30
2018-04-01T01:55:30.959Z,36.30
2018-04-01T01:57:57.833Z,30.23
2018-04-01T02:00:24.680Z,30.90
2018-04-01T02:02:51.537Z,30.70
2018-04-01T02:05:18.383Z,31.03
2018-04-01T02:07:45.235Z,36.43
2018-04-01T02:10:12.078Z,34.13
2018-04-01T02:12:38.990Z,32.47
2018-04-01T02:15:05.840Z,34.47
2018-04-01T02:17:32.696Z,33.67
2018-04-01T02:19:59.618Z,36.50
2018-04-01T02:22:26.468Z,29.80
2018-04-01T02:24:53.319Z,32.63
2018-04-01T02:27:20.171Z,33.87
2018-04-01T02:29:47.058Z,28.27
2018-04-01T02:32:13.911Z,31.80
2018-04-01T02:34:40.791Z,31.03
2018-04-01T02:37:07.635Z,34.77
2018-04-01T02:39:34.483Z,33.07
2018-04-01T02:42:01.332Z,33.03
2018-04-01T02:44:28.836Z,31.67
2018-04-01T02:46:55.683Z,30.10
2018-04-01T02:49:22.546Z,28.27
2018-04-01T02:51:49.403Z,29.97
2018-04-01T02:54:16.248Z,31.83
2018-04-01T02:56:43.102Z,30.10
2018-04-01T02:59:10.015Z,29.80
2018-04-01T03:01:36.873Z,28.30
2018-04-01T03:04:03.723Z,26.83
2018-04-01T03:06:30.581Z,26.93
2018-04-01T03:08:57.431Z,27.73
2018-04-01T03:11:24.279Z,29.07
2018-04-01T03:13:51.143Z,31.93
2018-04-01T03:16:18.025Z,27.67
2018-04-01T03:18:44.883Z,29.50
2018-04-01T03:21:11.743Z,33.53
2018-04-01T03:23:38.602Z,32.67
2018-04-01T03:26:05.462Z,33.83
2018-04-01T03:28:32.542Z,29.90
2018-04-01T03:30:59.473Z,28.43
2018-04-01T03:33:26.328Z,26.77
2018-04-01T03:35:53.175Z,29.10
2018-04-01T03:38:20.027Z,31.17
2018-04-01T03:40:46.933Z,32.47
2018-04-01T03:43:13.801Z,29.83
2018-04-01T03:45:40.662Z,25.30
2018-04-01T03:48:07.523Z,30.27
2018-04-01T03:50:34.370Z,25.87
2018-04-01T03:53:01.235Z,24.37
2018-04-01T03:55:28.078Z,25.90
2018-04-01T03:57:54.990Z,25.87
2018-04-01T04:00:21.881Z,29.00
2018-04-01T04:02:48.699Z,27.63
2018-04-01T04:05:15.566Z,26.20
2018-04-01T04:07:42.418Z,30.50
2018-04-01T04:10:09.279Z,26.83
2018-04-01T04:12:36.132Z,26.73
2018-04-01T04:15:03.400Z,31.17
2018-04-01T04:17:30.301Z,26.57
2018-04-01T04:19:57.111Z,26.20
2018-04-01T04:22:23.958Z,26.77
2018-04-01T04:24:50.887Z,34.43
2018-04-01T04:27:17.743Z,23.37
2018-04-01T04:29:45.503Z,22.73
2018-04-01T04:32:12.357Z,24.00
2018-04-01T04:34:39.219Z,27.27
2018-04-01T04:37:06.108Z,23.63
2018-04-01T04:39:32.962Z,27.83
2018-04-01T04:41:59.816Z,24.90
2018-04-01T04:44:26.702Z,22.20
2018-04-01T04:46:53.571Z,22.37
2018-04-01T04:49:20.434Z,21.10
2018-04-01T04:51:47.283Z,22.80
2018-04-01T04:54:14.144Z,24.17
2018-04-01T04:56:40.995Z,22.60
2018-04-01T04:59:07.850Z,23.60
2018-04-01T05:01:34.726Z,22.27
2018-04-01T05:04:01.588Z,23.07
2018-04-01T05:06:28.435Z,24.83
2018-04-01T05:08:55.283Z,30.50
2018-04-01T05:11:22.134Z,23.23
2018-04-01T05:13:48.982Z,24.13
2018-04-01T05:16:15.879Z,24.97
2018-04-01T05:18:42.743Z,26.63
2018-04-01T05:21:09.588Z,26.27
2018-04-01T05:23:36.446Z,26.50
2018-04-01T05:26:03.295Z,25.07
2018-04-01T05:28:30.182Z,28.23
2018-04-01T05:30:57.135Z,25.30
2018-04-01T05:33:24.070Z,24.50
2018-04-01T05:35:51.039Z,28.23
2018-04-01T05:38:17.889Z,27.57
2018-04-01T05:40:44.753Z,24.40
2018-04-01T05:43:11.599Z,24.67
2018-04-01T05:45:38.459Z,25.33
2018-04-01T05:48:05.302Z,24.73
2018-04-01T05:50:32.231Z,28.70
2018-04-01T05:52:59.100Z,23.70
2018-04-01T05:55:25.963Z,19.37
2018-04-01T05:57:52.813Z,23.43
2018-04-01T06:00:19.698Z,24.10
2018-04-01T06:02:46.549Z,27.03
2018-04-01T06:05:14.353Z,22.73
2018-04-01T06:07:41.211Z,23.27
2018-04-01T06:10:08.058Z,23.53
2018-04-01T06:12:34.943Z,27.57
2018-04-01T06:15:02.058Z,26.03
2018-04-01T06:17:28.986Z,23.30
2018-04-01T06:19:55.930Z,19.23
2018-04-01T06:22:22.775Z,17.87
2018-04-01T06:24:49.635Z,19.73
2018-04-01T06:27:16.486Z,19.77
2018-04-01T06:29:43.402Z,20.00
2018-04-01T06:32:10.269Z,19.60
2018-04-01T06:34:37.113Z,21.90
2018-04-01T06:37:03.964Z,21.10
2018-04-01T06:39:30.818Z,22.73
2018-04-01T06:41:57.743Z,19.93
2018-04-01T06:44:24.599Z,22.03
2018-04-01T06:46:51.476Z,21.40
2018-04-01T06:49:18.330Z,17.93
2018-04-01T06:51:45.242Z,18.43
2018-04-01T06:54:12.095Z,23.00
2018-04-01T06:56:38.942Z,20.57
2018-04-01T06:59:05.795Z,21.90
2018-04-01T07:01:32.648Z,18.90
2018-04-01T07:03:59.498Z,20.80
2018-04-01T07:06:26.347Z,18.20
2018-04-01T07:08:53.206Z,18.10
2018-04-01T07:11:20.055Z,17.00
2018-04-01T07:13:46.894Z,21.60
2018-04-01T07:16:13.756Z,15.50
2018-04-01T07:18:40.599Z,18.47
2018-04-01T07:21:07.558Z,16.07
2018-04-01T07:23:34.407Z,17.60
2018-04-01T07:26:01.259Z,19.03
2018-04-01T07:28:28.102Z,19.90
2018-04-01T07:30:54.959Z,18.30
2018-04-01T07:33:21.869Z,18.57
2018-04-01T07:35:48.723Z,19.00
2018-04-01T07:38:15.571Z,19.80
2018-04-01T07:40:42.444Z,21.73
2018-04-01T07:43:09.295Z,18.30
2018-04-01T07:45:36.179Z,20.00
2018-04-01T07:48:03.035Z,18.73
2018-04-01T07:50:29.885Z,18.23
2018-04-01T07:52:56.738Z,15.87
2018-04-01T07:55:23.599Z,13.87
2018-04-01T07:57:50.449Z,16.83
2018-04-01T08:00:17.333Z,14.00
2018-04-01T08:02:44.183Z,14.93
2018-04-01T08:05:11.041Z,13.90
2018-04-01T08:07:37.887Z,15.70
2018-04-01T08:10:04.819Z,13.50
2018-04-01T08:12:31.663Z,15.57
2018-04-01T08:14:58.544Z,14.33
2018-04-01T08:17:25.362Z,15.73
2018-04-01T08:19:52.244Z,15.63
2018-04-01T08:22:19.095Z,15.00
2018-04-01T08:24:45.983Z,16.07
2018-04-01T08:27:12.831Z,16.10
2018-04-01T08:29:39.719Z,15.03
2018-04-01T08:32:06.634Z,17.20
2018-04-01T08:34:33.511Z,16.20
2018-04-01T08:37:00.422Z,16.93
2018-04-01T08:39:27.281Z,19.17
2018-04-01T08:41:54.214Z,17.13
2018-04-01T08:44:21.155Z,13.77
2018-04-01T08:46:47.998Z,13.50
2018-04-01T08:49:14.854Z,14.03
2018-04-01T08:51:41.783Z,15.00
2018-04-01T08:54:08.727Z,16.10
2018-04-01T08:56:35.647Z,16.77
2018-04-01T08:59:02.515Z,13.97
2018-04-01T09:01:29.459Z,13.60
2018-04-01T09:03:56.400Z,12.30
2018-04-01T09:06:23.367Z,14.17
2018-04-01T09:08:50.201Z,11.37
2018-04-01T09:11:17.050Z,14.97
2018-04-01T09:13:43.970Z,13.03
2018-04-01T09:16:10.844Z,12.80
2018-04-01T09:18:37.683Z,10.47
2018-04-01T09:21:04.538Z,12.00
2018-04-01T09:23:31.455Z,11.17
2018-04-01T09:25:58.382Z,10.10
2018-04-01T09:28:25.242Z,10.83
2018-04-01T09:30:52.196Z,9.50
2018-04-01T09:33:19.028Z,9.47
2018-04-01T09:35:46.827Z,10.60
2018-04-01T09:38:13.674Z,8.93
2018-04-01T09:40:40.519Z,9.13
2018-04-01T09:43:07.378Z,9.10
2018-04-01T09:45:34.340Z,8.83
2018-04-01T09:48:01.163Z,9.13
2018-04-01T09:50:28.014Z,11.47
2018-04-01T09:52:54.859Z,10.50
2018-04-01T09:55:21.714Z,8.63
2018-04-01T09:57:48.546Z,9.07
2018-04-01T10:00:21.106Z,8.60
2018-04-01T10:02:48.498Z,8.50
2018-04-01T10:05:16.808Z,9.77
2018-04-01T10:07:44.183Z,8.20
2018-04-01T10:10:11.620Z,8.67
2018-04-01T10:12:39.026Z,9.73
2018-04-01T10:15:06.445Z,10.00
2018-04-01T10:17:33.838Z,8.23
2018-04-01T10:20:01.248Z,11.23
2018-04-01T10:22:28.698Z,13.20
2018-04-01T10:24:56.074Z,8.90
2018-04-01T10:27:23.454Z,8.50
2018-04-01T10:29:50.835Z,12.07
2018-04-01T10:32:18.325Z,8.60
2018-04-01T10:34:45.702Z,9.77
2018-04-01T10:37:13.082Z,10.37
2018-04-01T10:39:40.482Z,10.23
2018-04-01T10:42:07.870Z,8.67
2018-04-01T10:44:35.251Z,8.90
2018-04-01T10:47:02.648Z,7.93
2018-04-01T10:49:30.029Z,8.90
2018-04-01T10:51:57.410Z,9.60
2018-04-01T10:54:24.250Z,8.67
2018-04-01T10:59:22.096Z,8.90
2018-04-01T11:01:48.938Z,8.83
2018-04-01T11:04:15.780Z,8.10
2018-04-01T11:06:42.623Z,9.03
2018-04-01T11:09:09.530Z,9.47
2018-04-01T11:11:36.366Z,8.87
2018-04-01T11:14:03.239Z,11.53
2018-04-01T11:16:30.080Z,10.07
2018-04-01T11:18:57.022Z,10.17
2018-04-01T11:21:23.865Z,11.43
2018-04-01T11:23:50.722Z,10.70
2018-04-01T11:26:17.566Z,10.63
2018-04-01T11:28:44.495Z,11.20
2018-04-01T11:31:11.351Z,9.18
2018-04-01T11:33:38.195Z,11.60
2018-04-01T11:36:05.045Z,11.90
2018-04-01T11:38:31.893Z,9.70
2018-04-01T11:40:58.734Z,10.03
2018-04-01T11:43:25.582Z,11.03
2018-04-01T11:45:52.486Z,11.17
2018-04-01T11:48:19.335Z,10.03
2018-04-01T11:50:46.186Z,12.07
2018-04-01T11:53:13.123Z,15.10
2018-04-01T11:55:39.977Z,14.07
2018-04-01T11:58:06.819Z,12.13
2018-04-01T12:00:33.671Z,10.30
2018-04-01T12:03:00.608Z,12.10
2018-04-01T12:05:27.536Z,11.97
2018-04-01T12:07:54.374Z,9.13
2018-04-01T12:10:21.324Z,12.27
2018-04-01T12:12:48.266Z,10.77
2018-04-01T12:15:15.122Z,10.10
2018-04-01T12:17:42.015Z,13.30
2018-04-01T12:20:08.886Z,10.03
2018-04-01T12:22:35.711Z,10.40
2018-04-01T12:25:02.652Z,9.97
2018-04-01T12:27:29.590Z,9.90
2018-04-01T12:29:56.443Z,13.80
2018-04-01T12:32:23.290Z,11.48
2018-04-01T12:34:50.154Z,10.00
2018-04-01T12:37:17.006Z,9.37
2018-04-01T12:39:43.850Z,9.17
2018-04-01T12:42:10.691Z,9.37
2018-04-01T12:44:37.563Z,11.20
2018-04-01T12:47:04.422Z,12.07
2018-04-01T12:49:31.362Z,11.17
2018-04-01T12:51:58.225Z,11.53
2018-04-01T12:54:25.159Z,11.17
2018-04-01T12:56:52.018Z,13.60
2018-04-01T12:59:18.872Z,11.93
2018-04-01T13:01:45.761Z,15.33
2018-04-01T13:04:12.570Z,11.97
2018-04-01T13:06:39.423Z,14.80
2018-04-01T13:09:06.279Z,13.70
2018-04-01T13:11:33.139Z,12.53
2018-04-01T13:13:59.991Z,13.40
2018-04-01T13:16:26.934Z,10.07
2018-04-01T13:18:53.787Z,10.93
2018-04-01T13:21:20.733Z,10.20
2018-04-01T13:23:47.579Z,10.50
2018-04-01T13:26:14.517Z,11.90
2018-04-01T13:28:41.460Z,11.90
2018-04-01T13:31:08.315Z,10.70
2018-04-01T13:33:35.170Z,16.17
2018-04-01T13:36:02.026Z,20.60
2018-04-01T13:38:28.883Z,44.77
2018-04-01T13:40:55.769Z,17.20
2018-04-01T13:43:22.627Z,15.03
2018-04-01T13:45:49.550Z,13.37
2018-04-01T13:48:16.519Z,11.90
2018-04-01T13:50:43.447Z,9.73
2018-04-01T13:53:10.286Z,8.30
2018-04-01T13:55:37.145Z,7.50
2018-04-01T13:58:03.999Z,9.80
2018-04-01T14:00:30.845Z,11.90
2018-04-01T14:02:57.704Z,9.33
2018-04-01T14:05:24.628Z,9.17
2018-04-01T14:07:51.582Z,10.37
2018-04-01T14:10:18.438Z,8.73
2018-04-01T14:12:45.394Z,10.00
2018-04-01T14:15:12.237Z,7.50
2018-04-01T14:17:39.103Z,8.93
2018-04-01T14:20:05.957Z,13.13
2018-04-01T14:22:32.866Z,14.23
2018-04-01T14:24:59.728Z,11.20
2018-04-01T14:27:26.583Z,11.73
2018-04-01T14:29:53.430Z,9.20
2018-04-01T14:32:20.330Z,18.40
2018-04-01T14:34:47.177Z,29.83
2018-04-01T14:37:14.031Z,13.03
2018-04-01T14:39:40.883Z,14.40
2018-04-01T14:42:07.814Z,15.63
2018-04-01T14:44:34.743Z,8.90
2018-04-01T14:47:01.695Z,18.73
2018-04-01T14:49:28.631Z,7.17
2018-04-01T14:51:55.628Z,11.70
2018-04-01T14:54:22.524Z,6.17
2018-04-01T14:56:49.471Z,6.60
2018-04-01T14:59:16.320Z,10.10
2018-04-01T15:01:43.183Z,8.47
2018-04-01T15:04:10.060Z,6.37
2018-04-01T15:06:36.940Z,11.30
2018-04-01T15:09:03.784Z,8.43
2018-04-01T15:11:30.674Z,7.83
2018-04-01T15:13:57.567Z,6.70
2018-04-01T15:16:24.425Z,11.83
2018-04-01T15:18:51.358Z,11.20
2018-04-01T15:21:18.303Z,5.10
2018-04-01T15:23:45.243Z,6.17
2018-04-01T15:26:12.107Z,8.73
2018-04-01T15:28:38.944Z,6.80
2018-04-01T15:31:05.795Z,6.03
2018-04-01T15:33:32.639Z,8.33
2018-04-01T15:35:59.564Z,8.00
2018-04-01T15:38:26.412Z,8.10
2018-04-01T15:40:53.340Z,9.97
2018-04-01T15:43:20.192Z,7.37
2018-04-01T15:45:47.127Z,6.80
2018-04-01T15:48:13.992Z,6.20
2018-04-01T15:50:40.898Z,7.30
2018-04-01T15:53:07.778Z,6.73
2018-04-01T15:55:34.710Z,5.30
2018-04-01T15:58:01.652Z,8.97
2018-04-01T16:00:28.596Z,8.87
2018-04-01T16:02:55.582Z,5.03
2018-04-01T16:05:22.418Z,4.77
2018-04-01T16:07:49.267Z,7.13
2018-04-01T16:10:16.128Z,3.90
2018-04-01T16:12:43.001Z,7.70
2018-04-01T16:15:09.834Z,6.47
2018-04-01T16:17:36.694Z,8.23
2018-04-01T16:20:03.543Z,6.30
2018-04-01T16:22:30.486Z,4.20
2018-04-01T16:24:57.330Z,8.43
2018-04-01T16:27:24.192Z,10.63
2018-04-01T16:29:51.048Z,7.00
2018-04-01T16:32:17.890Z,6.80
2018-04-01T16:34:44.727Z,5.60
2018-04-01T16:37:11.582Z,4.80
2018-04-01T16:39:38.543Z,6.33
2018-04-01T16:42:05.275Z,4.13
2018-04-01T16:44:32.114Z,6.03
2018-04-01T16:46:59.065Z,5.50
2018-04-01T16:49:25.919Z,14.87
2018-04-01T16:51:52.859Z,5.20
2018-04-01T16:54:19.703Z,5.90
2018-04-01T16:56:46.686Z,6.80
2018-04-01T16:59:13.522Z,6.33
2018-04-01T17:01:40.374Z,6.47
2018-04-01T17:04:07.214Z,5.27
2018-04-01T17:06:34.067Z,4.90
2018-04-01T17:09:00.965Z,4.47
2018-04-01T17:11:27.822Z,6.90
2018-04-01T17:13:54.751Z,8.30
2018-04-01T17:16:21.607Z,17.03
2018-04-01T17:18:48.450Z,7.50
2018-04-01T17:21:15.300Z,6.20
2018-04-01T17:23:42.222Z,12.73
2018-04-01T17:26:09.070Z,6.30
2018-04-01T17:28:35.939Z,5.93
2018-04-01T17:31:02.790Z,5.37
2018-04-01T17:33:29.763Z,6.70
2018-04-01T17:35:56.611Z,5.27
2018-04-01T17:38:23.454Z,5.33
2018-04-01T17:40:50.539Z,6.00
2018-04-01T17:43:17.460Z,12.53
2018-04-01T17:45:44.339Z,4.57
2018-04-01T17:48:11.195Z,6.77
2018-04-01T17:50:38.123Z,8.70
2018-04-01T17:53:05.085Z,28.97
2018-04-01T17:55:31.962Z,55.80
2018-04-01T17:57:58.826Z,36.47
2018-04-01T18:00:25.683Z,33.30
2018-04-01T18:02:52.650Z,31.20
2018-04-01T18:05:19.506Z,41.83
2018-04-01T18:07:46.378Z,60.73
2018-04-01T18:10:13.224Z,96.40
2018-04-01T18:12:40.114Z,126.27
2018-04-01T18:15:06.976Z,127.20
2018-04-01T18:17:33.836Z,100.60
2018-04-01T18:20:00.747Z,73.10
2018-04-01T18:22:27.601Z,86.00
2018-04-01T18:24:54.454Z,57.10
2018-04-01T18:27:21.373Z,25.57
2018-04-01T18:29:48.450Z,29.10
2018-04-01T18:32:15.314Z,19.80
2018-04-01T18:34:42.216Z,16.93
2018-04-01T18:37:09.155Z,16.20
2018-04-01T18:39:36.098Z,18.43
2018-04-01T18:42:03.046Z,15.20
2018-04-01T18:44:29.964Z,13.30
2018-04-01T18:46:56.818Z,19.80
2018-04-01T18:49:23.666Z,13.93
2018-04-01T18:51:50.527Z,19.20
2018-04-01T18:54:17.460Z,11.97
2018-04-01T18:56:44.394Z,12.17
2018-04-01T18:59:11.255Z,14.37
2018-04-01T19:01:38.182Z,11.37
2018-04-01T19:04:05.030Z,28.50
2018-04-01T19:06:31.883Z,13.47
2018-04-01T19:08:58.819Z,13.60
2018-04-01T19:11:25.663Z,17.47
2018-04-01T19:13:52.570Z,22.00
2018-04-01T19:16:19.978Z,16.80
2018-04-01T19:18:47.414Z,20.27
2018-04-01T19:21:14.870Z,29.20
2018-04-01T19:23:42.268Z,23.60
2018-04-01T19:26:09.654Z,31.57
2018-04-01T19:28:37.102Z,31.03
2018-04-01T19:31:04.510Z,29.83
2018-04-01T19:33:31.911Z,37.00
2018-04-01T19:35:59.298Z,43.93
2018-04-01T19:38:26.694Z,53.53
2018-04-01T19:40:54.087Z,60.27
2018-04-01T19:43:21.490Z,70.00
2018-04-01T19:45:48.875Z,79.50
2018-04-01T19:48:16.332Z,70.53
2018-04-01T19:50:43.741Z,63.37
2018-04-01T19:53:11.128Z,78.07
2018-04-01T19:55:38.524Z,55.47
2018-04-01T19:58:05.920Z,53.17
2018-04-01T20:00:33.338Z,59.27
2018-04-01T20:03:00.733Z,55.17
2018-04-01T20:05:28.138Z,46.80
2018-04-01T20:07:55.597Z,43.17
2018-04-01T20:10:22.986Z,44.17
2018-04-01T20:12:50.408Z,36.53
2018-04-01T20:15:17.789Z,35.77
2018-04-01T20:17:45.203Z,34.30
2018-04-01T20:20:12.601Z,33.37
2018-04-01T20:22:40.011Z,33.83
2018-04-01T20:25:07.407Z,36.07
2018-04-01T20:27:34.870Z,29.73
2018-04-01T20:30:02.260Z,35.57
2018-04-01T20:32:29.731Z,30.63
2018-04-01T20:34:57.155Z,31.10
2018-04-01T20:37:24.547Z,28.10
2018-04-01T20:39:52.003Z,23.83
2018-04-01T20:42:19.386Z,31.83
2018-04-01T20:44:46.814Z,27.20
2018-04-01T20:47:14.207Z,23.73
2018-04-01T20:49:41.603Z,22.67
2018-04-01T20:52:09.075Z,24.60
2018-04-01T20:54:37.139Z,24.10
2018-04-01T20:57:04.512Z,30.70
2018-04-01T20:59:31.911Z,25.83
2018-04-01T21:01:59.306Z,17.20
2018-04-01T21:04:26.699Z,24.10
2018-04-01T21:06:54.118Z,24.60
2018-04-01T21:09:21.526Z,27.30
2018-04-01T21:11:48.924Z,24.40
2018-04-01T21:14:16.324Z,36.90
2018-04-01T21:16:43.739Z,37.77
2018-04-01T21:19:11.204Z,35.83
2018-04-01T21:21:38.590Z,34.40
2018-04-01T21:24:06.002Z,36.57
2018-04-01T21:26:33.468Z,36.40
2018-04-01T21:29:00.895Z,35.40
2018-04-01T21:31:28.284Z,33.27
2018-04-01T21:33:55.682Z,35.33
2018-04-01T21:36:23.155Z,32.60
2018-04-01T21:38:50.552Z,32.77
2018-04-01T21:41:17.938Z,33.73
2018-04-01T21:43:45.342Z,32.23
2018-04-01T21:46:12.748Z,28.73
2018-04-01T21:48:40.159Z,31.13
2018-04-01T21:51:07.550Z,28.40
2018-04-01T21:53:34.953Z,34.73
2018-04-01T21:56:02.351Z,32.20
2018-04-01T21:58:29.774Z,34.00
2018-04-01T22:00:57.170Z,32.07
2018-04-01T22:03:24.579Z,38.63
2018-04-01T22:05:51.962Z,34.57
2018-04-01T22:08:19.363Z,39.77
2018-04-01T22:10:46.786Z,29.80
2018-04-01T22:13:14.178Z,35.27
2018-04-01T22:15:41.599Z,30.03
2018-04-01T22:18:09.431Z,32.97
2018-04-01T22:20:36.932Z,39.60
2018-04-01T22:23:17.475Z,40.03
2018-04-01T22:25:44.876Z,37.73
2018-04-01T22:28:12.286Z,47.60
2018-04-01T22:30:39.683Z,54.83
2018-04-01T22:33:07.164Z,50.07
2018-04-01T22:35:34.619Z,48.43
2018-04-01T22:38:02.067Z,58.67
2018-04-01T22:40:29.462Z,57.23
2018-04-01T22:42:56.879Z,55.43
2018-04-01T22:45:24.281Z,60.70
2018-04-01T22:47:51.670Z,65.73
2018-04-01T22:50:19.086Z,66.03
2018-04-01T22:52:46.488Z,62.87
2018-04-01T22:55:13.894Z,67.93
2018-04-01T22:57:41.294Z,65.57
2018-04-01T23:00:08.695Z,62.27
2018-04-01T23:02:36.120Z,65.30
2018-04-01T23:05:03.513Z,63.80
2018-04-01T23:07:30.898Z,66.27
2018-04-01T23:09:58.297Z,80.70
2018-04-01T23:12:25.697Z,70.50
2018-04-01T23:14:53.108Z,72.83
2018-04-01T23:17:20.499Z,68.93
2018-04-01T23:19:48.003Z,72.90
2018-04-01T23:22:15.390Z,67.00
2018-04-01T23:24:42.782Z,75.50
2018-04-01T23:27:10.183Z,60.83
2018-04-01T23:29:37.626Z,59.43
2018-04-01T23:32:05.087Z,57.30
2018-04-01T23:34:32.535Z,57.13
2018-04-01T23:37:00.854Z,51.53
2018-04-01T23:39:28.270Z,56.13
2018-04-01T23:41:55.667Z,53.00
2018-04-01T23:44:23.058Z,47.23
2018-04-01T23:46:50.442Z,40.87
2018-04-01T23:49:17.882Z,44.10
2018-04-01T23:51:45.275Z,44.50
2018-04-01T23:54:12.679Z,47.87
2018-04-01T23:56:40.153Z,45.17
2018-04-01T23:59:08.315Z,44.37
